Time;durP1;ratioP1;P1;durP2;ratioP2;P2;SDS_P1;SDS_P2;PMS_P1;PMS_P2;Temp;Humidity;BMP_temperature;BMP_pressure;BME280_temperature;BME280_humidity;BME280_pressure;Samples;Min_cycle;Max_cycle;Signal;HPM_P1;HPM_P2
2022/09/27 00:04:43;;;;;;;0.37;0.37;;;;;;;15.19;71.26;99343.72;18623719;31;20092;-57
2022/09/27 00:14:47;;;;;;;0.30;0.30;;;;;;;15.32;70.98;99325.72;18623072;31;20083;-57
2022/09/27 00:24:51;;;;;;;1.02;1.02;;;;;;;15.27;71.01;99306.66;18622409;31;20110;-56
2022/09/27 00:34:55;;;;;;;1.25;1.17;;;;;;;15.25;70.89;99311.94;18621723;31;20114;-57
2022/09/27 00:45:10;;;;;;;0.40;0.40;;;;;;;15.18;71.08;99299.13;18621159;31;20431;-57
2022/09/27 00:55:17;;;;;;;0.30;0.30;;;;;;;15.22;71.21;99279.66;18480113;32;20546;-57
2022/09/27 01:05:21;;;;;;;2.70;1.65;;;;;;;15.35;70.82;99264.25;18489745;32;20108;-58
2022/09/27 01:15:31;;;;;;;0.40;0.40;;;;;;;15.28;70.87;99268.03;18538052;31;20153;-57
2022/09/27 01:25:51;;;;;;;0.75;0.62;;;;;;;15.22;71.06;99270.03;18629958;31;20094;-57
2022/09/27 01:36:11;;;;;;;0.50;0.50;;;;;;;15.28;70.78;99261.03;18629687;31;20120;-57
2022/09/27 01:46:18;;;;;;;0.50;0.50;;;;;;;15.31;70.77;99241.63;18629336;31;20106;-57
2022/09/27 01:56:27;;;;;;;0.40;0.40;;;;;;;15.26;70.79;99239.19;18628774;31;20110;-58
2022/09/27 02:06:33;;;;;;;1.35;0.60;;;;;;;15.22;70.61;99214.81;18619057;31;20108;-57
2022/09/27 02:16:47;;;;;;;0.80;0.77;;;;;;;15.10;70.67;99199.53;18562939;32;20092;-57
2022/09/27 02:26:57;;;;;;;0.37;0.37;;;;;;;15.16;70.57;99201.91;18562298;32;20088;-56
2022/09/27 02:37:01;;;;;;;0.40;0.40;;;;;;;15.03;70.70;99201.53;18562100;32;20110;-57
2022/09/27 02:47:13;;;;;;;0.40;0.40;;;;;;;15.07;70.54;99197.88;18562025;32;20099;-57
2022/09/27 02:57:21;;;;;;;;;;;;;;;14.96;71.02;99202.69;18561895;32;20122;-57
2022/09/27 03:07:25;;;;;;;0.40;0.40;;;;;;;15.20;70.01;99185.09;18561753;32;20058;-57
2022/09/27 03:17:30;;;;;;;0.25;0.25;;;;;;;15.02;70.73;99185.81;18560858;32;20369;-57
2022/09/27 03:27:33;;;;;;;0.30;0.30;;;;;;;14.81;72.10;99180.50;18559886;32;20116;-56
2022/09/27 03:37:38;;;;;;;0.45;0.45;;;;;;;15.03;71.24;99167.38;18559778;32;20110;-57
2022/09/27 03:47:41;;;;;;;1.02;0.68;;;;;;;15.05;71.51;99162.91;18559504;32;20128;-57
2022/09/27 03:57:47;;;;;;;0.52;0.52;;;;;;;15.16;71.50;99154.59;18559875;32;20093;-57
2022/09/27 04:07:50;;;;;;;0.70;0.60;;;;;;;15.23;71.67;99142.06;18557102;32;20088;-57
2022/09/27 04:17:55;;;;;;;0.50;0.50;;;;;;;15.17;72.46;99144.91;18557859;32;20177;-57
2022/09/27 04:28:01;;;;;;;0.30;0.30;;;;;;;15.12;72.82;99153.88;18592483;31;20088;-57
2022/09/27 04:38:05;;;;;;;1.05;0.88;;;;;;;15.18;72.48;99157.19;18627874;31;20104;-57
2022/09/27 04:48:09;;;;;;;0.40;0.40;;;;;;;15.16;71.94;99140.59;18623904;31;20092;-57
2022/09/27 04:58:13;;;;;;;0.30;0.30;;;;;;;15.35;71.09;99135.44;18594782;31;20133;-56
2022/09/27 05:08:16;;;;;;;0.85;0.60;;;;;;;15.21;71.57;99136.84;18596570;31;20096;-57
2022/09/27 05:18:21;;;;;;;1.30;0.70;;;;;;;15.24;71.41;99130.63;18620262;31;20100;-57
2022/09/27 05:28:24;;;;;;;3.75;1.05;;;;;;;15.21;71.49;99121.06;18582132;31;20116;-56
2022/09/27 05:38:29;;;;;;;0.57;0.57;;;;;;;13.90;76.35;99112.13;18617050;31;20092;-57
2022/09/27 05:48:33;;;;;;;1.37;1.23;;;;;;;13.72;76.58;99122.38;18620116;31;20150;-57
2022/09/27 05:58:37;;;;;;;1.40;1.30;;;;;;;14.15;75.14;99109.44;18600134;31;20096;-56
2022/09/27 06:08:40;;;;;;;0.62;0.62;;;;;;;14.24;75.26;99102.13;18620814;31;20099;-57
2022/09/27 06:18:45;;;;;;;0.50;0.50;;;;;;;14.14;75.57;99096.41;18627322;31;20091;-56
2022/09/27 06:28:50;;;;;;;0.65;0.60;;;;;;;14.45;75.10;99105.72;18612083;31;20099;-57
2022/09/27 06:38:54;;;;;;;0.73;0.73;;;;;;;14.87;73.82;99111.09;18587408;31;20145;-57
2022/09/27 06:48:57;;;;;;;1.05;0.43;;;;;;;14.81;73.70;99101.72;18602239;31;20135;-56
2022/09/27 07:09:23;;;;;;;;;;;;;;;15.33;72.65;99097.84;18622079;31;20369;-57
2022/09/27 07:19:27;;;;;;;0.60;0.60;;;;;;;15.62;72.30;99098.34;18601653;31;19980;-57
2022/09/27 07:29:31;;;;;;;3.37;1.35;;;;;;;15.88;72.00;99093.69;18578535;31;20119;-57
2022/09/27 07:39:35;;;;;;;0.50;0.50;;;;;;;16.00;72.18;99111.59;18625327;31;20124;-59
2022/09/27 07:49:38;;;;;;;0.55;0.55;;;;;;;16.12;71.51;99120.69;18624500;31;20092;-57
2022/09/27 07:59:44;;;;;;;0.28;0.28;;;;;;;16.56;71.32;99098.50;18620829;31;20105;-57
2022/09/27 08:09:47;;;;;;;0.98;0.40;;;;;;;16.84;69.79;99099.78;18600849;31;20084;-58
2022/09/27 08:19:52;;;;;;;0.60;0.47;;;;;;;17.15;69.83;99093.00;18595413;31;20492;-57
2022/09/27 08:29:55;;;;;;;0.50;0.50;;;;;;;17.32;69.63;99078.13;18591544;31;20080;-57
2022/09/27 08:40:00;;;;;;;0.30;0.30;;;;;;;17.68;69.38;99063.06;18565727;32;20106;-57
2022/09/27 08:50:14;;;;;;;21.48;1.10;;;;;;;18.15;66.74;99066.72;18601921;31;20096;-58
2022/09/27 09:00:20;;;;;;;1.77;0.85;;;;;;;17.98;67.20;99065.84;18592066;31;20221;-57
2022/09/27 09:21:01;;;;;;;0.32;0.32;;;;;;;18.11;68.00;99050.19;18574219;31;20360;-57
2022/09/27 09:31:09;;;;;;;1.35;0.65;;;;;;;18.30;66.70;99054.47;18596335;31;20143;-58
2022/09/27 09:41:19;;;;;;;0.40;0.40;;;;;;;18.00;67.65;99007.66;18595924;31;20165;-58
2022/09/27 09:51:26;;;;;;;0.30;0.30;;;;;;;18.32;66.34;99004.19;18606365;31;20096;-57
2022/09/27 10:01:36;;;;;;;0.15;0.15;;;;;;;18.54;66.14;99003.81;18601464;31;20156;-57
2022/09/27 10:11:41;;;;;;;0.80;0.80;;;;;;;18.09;66.95;98995.78;18594251;31;20174;-57
2022/09/27 10:21:46;;;;;;;0.32;0.32;;;;;;;18.49;65.31;98990.88;18608945;31;20088;-57
2022/09/27 10:31:50;;;;;;;1.15;0.45;;;;;;;18.03;66.72;98979.34;18627902;31;20132;-57
2022/09/27 10:41:55;;;;;;;0.10;0.10;;;;;;;17.61;67.86;98971.03;18622450;31;20110;-57
2022/09/27 10:52:00;;;;;;;0.47;0.47;;;;;;;17.29;68.59;98973.63;18623466;31;20454;-57
2022/09/27 11:02:06;;;;;;;0.30;0.30;;;;;;;17.58;67.78;98973.00;18625068;31;20401;-57
2022/09/27 11:12:10;;;;;;;0.60;0.60;;;;;;;17.87;67.32;98966.13;18616292;31;20135;-57
2022/09/27 11:22:26;;;;;;;1.45;1.17;;;;;;;17.62;68.73;98954.28;18620207;31;20123;-57
2022/09/27 11:32:36;;;;;;;0.57;0.30;;;;;;;18.32;67.33;98933.75;18560199;32;20425;-57
2022/09/27 11:43:14;;;;;;;0.43;0.33;;;;;;;18.39;67.52;98927.13;18559255;32;20084;-57
2022/09/27 11:53:26;;;;;;;0.20;0.20;;;;;;;18.50;67.78;98904.56;18557723;32;20089;-57
2022/09/27 12:04:10;;;;;;;0.32;0.32;;;;;;;17.87;69.16;98891.34;18560599;31;20146;-57
2022/09/27 12:14:19;;;;;;;0.88;0.55;;;;;;;18.36;67.82;98878.94;18359125;32;20144;-57
2022/09/27 12:24:29;;;;;;;0.52;0.30;;;;;;;18.72;67.29;98875.03;18358085;32;20196;-57
2022/09/27 12:34:37;;;;;;;1.35;0.52;;;;;;;18.85;67.54;98848.69;18344087;32;20125;-57
2022/09/27 12:44:42;;;;;;;0.40;0.40;;;;;;;19.29;65.13;98831.00;18408181;32;20392;-57
2022/09/27 12:55:22;;;;;;;0.20;0.20;;;;;;;18.15;68.43;98837.00;18557914;32;20453;-57
2022/09/27 13:05:59;;;;;;;0.75;0.52;;;;;;;18.92;67.19;98820.94;18564956;32;20110;-57
2022/09/27 13:16:05;;;;;;;0.47;0.47;;;;;;;18.76;67.61;98813.13;18559736;32;20191;-57
2022/09/27 13:26:22;;;;;;;0.47;0.40;;;;;;;18.61;70.28;98799.06;18570276;31;20126;-57
2022/09/27 13:36:31;;;;;;;0.77;0.28;;;;;;;18.90;69.50;98808.75;18595540;31;20092;-57
2022/09/27 13:46:35;;;;;;;2.35;1.95;;;;;;;18.72;70.00;98799.22;18619402;31;20122;-57
2022/09/27 13:56:55;;;;;;;1.35;0.43;;;;;;;18.64;70.25;98788.28;18627173;31;20111;-57
2022/09/27 14:07:00;;;;;;;0.20;0.20;;;;;;;18.95;69.70;98778.44;18627754;31;20080;-57
2022/09/27 14:17:07;;;;;;;0.32;0.32;;;;;;;18.86;70.42;98764.00;18628122;31;20111;-57
2022/09/27 14:27:16;;;;;;;0.20;0.20;;;;;;;18.78;70.35;98813.88;18628293;31;20337;-57
2022/09/27 14:37:24;;;;;;;0.10;0.10;;;;;;;18.38;64.60;98830.34;18626906;31;20087;-57
2022/09/27 14:47:28;;;;;;;0.20;0.20;;;;;;;17.78;66.13;98847.00;18619226;31;20367;-57
2022/09/27 14:57:34;;;;;;;0.20;0.20;;;;;;;17.66;67.57;98840.66;18613125;31;20100;-57
2022/09/27 15:07:38;;;;;;;0.13;0.13;;;;;;;17.65;68.06;98850.34;18626515;31;20102;-57
2022/09/27 15:17:43;;;;;;;0.20;0.20;;;;;;;17.44;67.95;98855.03;18620408;31;20387;-57
2022/09/27 15:27:48;;;;;;;1.65;1.33;;;;;;;17.37;69.17;98866.88;18618872;31;20424;-57
2022/09/27 15:38:10;;;;;;;0.28;0.28;;;;;;;17.45;68.32;98877.84;18604861;31;20349;-58
2022/09/27 15:48:15;;;;;;;0.10;0.10;;;;;;;17.41;68.82;98897.41;18566693;31;78616;-58
2022/09/27 15:58:21;;;;;;;0.25;0.25;;;;;;;17.14;65.50;98903.25;18578415;31;20145;-57
2022/09/27 16:08:24;;;;;;;0.20;0.20;;;;;;;16.45;63.06;98906.72;18616411;31;20153;-57
2022/09/27 16:18:30;;;;;;;0.30;0.30;;;;;;;16.06;62.14;98918.31;18621934;31;20091;-58
2022/09/27 16:28:33;;;;;;;0.20;0.20;;;;;;;15.48;63.69;98917.50;18559316;32;20118;-57
2022/09/27 16:38:38;;;;;;;0.30;0.30;;;;;;;15.48;62.66;98934.13;18567771;31;20088;-57
2022/09/27 16:48:41;;;;;;;1.10;1.10;;;;;;;15.62;60.95;98940.53;18565721;31;20100;-57
2022/09/27 16:58:45;;;;;;;0.30;0.30;;;;;;;15.00;63.61;98949.41;18589010;31;20096;-57
2022/09/27 17:08:48;;;;;;;0.40;0.40;;;;;;;15.27;63.19;98946.47;18598937;31;20110;-57
2022/09/27 17:18:53;;;;;;;1.02;1.00;;;;;;;15.18;65.96;98973.19;18565294;31;20111;-57
2022/09/27 17:28:56;;;;;;;0.32;0.32;;;;;;;15.50;61.66;98978.75;18564512;32;20372;-57
2022/09/27 17:39:02;;;;;;;0.37;0.37;;;;;;;15.64;62.75;98965.81;18564177;32;20114;-57
2022/09/27 17:59:24;;;;;;;0.30;0.30;;;;;;;15.03;66.77;99001.81;18423758;32;20533;-57
2022/09/27 18:09:28;;;;;;;0.30;0.30;;;;;;;15.45;65.98;99002.63;18423528;32;20146;-57
2022/09/27 18:19:32;;;;;;;0.30;0.30;;;;;;;15.42;66.16;99001.91;18423003;32;20140;-57
2022/09/27 18:29:35;;;;;;;0.40;0.40;;;;;;;15.51;65.41;99001.50;18434235;32;20514;-57
2022/09/27 18:39:40;;;;;;;0.20;0.20;;;;;;;15.46;64.47;99019.25;18586661;31;20111;-58
2022/09/27 18:49:43;;;;;;;0.30;0.30;;;;;;;15.66;64.16;99050.78;18576494;31;20096;-58
2022/09/27 18:59:48;;;;;;;0.20;0.20;;;;;;;15.72;64.80;99057.56;18599860;31;20106;-58
2022/09/27 19:09:51;;;;;;;0.30;0.30;;;;;;;15.66;64.84;99042.91;18623166;31;20087;-58
2022/09/27 19:19:56;;;;;;;0.75;0.75;;;;;;;15.76;64.30;99053.84;18623009;31;20096;-58
2022/09/27 19:29:59;;;;;;;0.50;0.50;;;;;;;15.86;63.87;99063.94;18607310;31;20164;-57
2022/09/27 19:40:04;;;;;;;0.43;0.43;;;;;;;15.74;64.31;99075.88;18622659;31;20424;-58
2022/09/27 19:50:08;;;;;;;0.30;0.30;;;;;;;15.78;66.00;99072.19;18611872;31;20479;-57
2022/09/27 20:00:13;;;;;;;0.35;0.35;;;;;;;15.63;66.79;99079.84;18571795;31;20135;-57
2022/09/27 20:10:16;;;;;;;0.40;0.40;;;;;;;15.22;66.18;99069.38;18610141;31;20356;-56
2022/09/27 20:20:21;;;;;;;0.22;0.22;;;;;;;15.34;66.91;99073.25;18601350;31;20100;-56
2022/09/27 20:30:24;;;;;;;0.30;0.30;;;;;;;15.87;65.16;99087.56;18592341;31;20388;-57
2022/09/27 20:40:29;;;;;;;0.45;0.45;;;;;;;16.17;62.63;99094.16;18608563;31;20136;-56
2022/09/27 20:50:32;;;;;;;0.30;0.30;;;;;;;16.06;62.74;99100.75;18623802;31;20099;-56
2022/09/27 21:00:37;;;;;;;0.20;0.20;;;;;;;15.99;62.57;99087.97;18629792;31;20100;-57
2022/09/27 21:10:40;;;;;;;0.30;0.30;;;;;;;16.14;60.53;99075.88;18629209;31;20469;-56
2022/09/27 21:20:44;;;;;;;0.20;0.20;;;;;;;16.14;60.48;99089.91;18626943;31;20393;-56
2022/09/27 21:30:47;;;;;;;0.28;0.28;;;;;;;16.08;61.69;99098.06;18629656;31;20103;-57
2022/09/27 21:40:57;;;;;;;0.30;0.30;;;;;;;15.81;63.14;99120.28;18629153;31;20110;-57
2022/09/27 21:51:05;;;;;;;0.30;0.30;;;;;;;15.59;64.47;99094.06;18628908;31;20114;-57
2022/09/27 22:01:10;;;;;;;0.28;0.28;;;;;;;15.47;63.99;99084.94;18629907;31;20600;-56
2022/09/27 22:11:15;;;;;;;0.30;0.30;;;;;;;15.41;60.51;99108.84;18629762;31;20083;-57
2022/09/27 22:21:21;;;;;;;0.30;0.30;;;;;;;15.25;61.62;99108.66;18628293;31;20482;-56
2022/09/27 22:31:24;;;;;;;0.20;0.20;;;;;;;15.17;61.21;99123.91;18628040;31;20139;-56
2022/09/27 22:41:29;;;;;;;0.30;0.30;;;;;;;15.14;60.33;99111.75;18627639;31;20096;-56
2022/09/27 22:51:32;;;;;;;0.40;0.40;;;;;;;14.92;60.06;99115.25;18627296;31;20113;-56
2022/09/27 23:01:37;;;;;;;0.40;0.40;;;;;;;14.98;58.96;99124.66;18627219;31;20095;-56
2022/09/27 23:11:40;;;;;;;0.40;0.40;;;;;;;14.90;58.44;99122.34;18583742;31;20466;-56
2022/09/27 23:21:44;;;;;;;0.40;0.40;;;;;;;14.52;61.03;99164.97;18561180;31;20376;-57
2022/09/27 23:31:47;;;;;;;0.45;0.45;;;;;;;14.01;62.58;99165.06;18560878;31;20092;-57
2022/09/27 23:41:52;;;;;;;0.40;0.40;;;;;;;13.95;62.80;99146.94;18559206;32;20380;-57
2022/09/27 23:51:55;;;;;;;0.30;0.30;;;;;;;13.77;62.16;99152.84;18560806;31;20429;-57
